sensor_id;sensor_type;location;lat;lon;timestamp;P1;durP1;ratioP1;P2;durP2;ratioP2
2173;SDS011;1093;51.424;11.764;2023-07-08T00:01:07;8.40;;;4.77;;
2173;SDS011;1093;51.424;11.764;2023-07-08T00:03:38;6.33;;;4.50;;
2173;SDS011;1093;51.424;11.764;2023-07-08T00:06:07;6.93;;;4.47;;
2173;SDS011;1093;51.424;11.764;2023-07-08T00:08:37;7.20;;;5.00;;
2173;SDS011;1093;51.424;11.764;2023-07-08T00:11:07;9.10;;;5.23;;
2173;SDS011;1093;51.424;11.764;2023-07-08T00:13:35;7.60;;;4.27;;
2173;SDS011;1093;51.424;11.764;2023-07-08T00:16:03;9.87;;;4.17;;
2173;SDS011;1093;51.424;11.764;2023-07-08T00:18:30;9.23;;;5.20;;
2173;SDS011;1093;51.424;11.764;2023-07-08T00:20:58;7.30;;;4.57;;
2173;SDS011;1093;51.424;11.764;2023-07-08T00:23:24;6.30;;;5.20;;
2173;SDS011;1093;51.424;11.764;2023-07-08T00:25:52;5.90;;;4.60;;
2173;SDS011;1093;51.424;11.764;2023-07-08T00:28:19;6.83;;;3.97;;
2173;SDS011;1093;51.424;11.764;2023-07-08T00:30:47;6.67;;;3.80;;
2173;SDS011;1093;51.424;11.764;2023-07-08T00:33:14;6.93;;;5.13;;
2173;SDS011;1093;51.424;11.764;2023-07-08T00:35:42;8.73;;;5.50;;
2173;SDS011;1093;51.424;11.764;2023-07-08T00:38:13;4.93;;;4.30;;
2173;SDS011;1093;51.424;11.764;2023-07-08T00:40:48;7.47;;;5.07;;
2173;SDS011;1093;51.424;11.764;2023-07-08T00:43:16;7.80;;;4.77;;
2173;SDS011;1093;51.424;11.764;2023-07-08T00:45:45;5.30;;;4.37;;
2173;SDS011;1093;51.424;11.764;2023-07-08T00:48:18;8.03;;;5.17;;
2173;SDS011;1093;51.424;11.764;2023-07-08T00:50:49;9.73;;;5.00;;
2173;SDS011;1093;51.424;11.764;2023-07-08T00:53:28;6.50;;;4.83;;
2173;SDS011;1093;51.424;11.764;2023-07-08T00:55:57;7.70;;;5.00;;
2173;SDS011;1093;51.424;11.764;2023-07-08T00:58:30;6.03;;;4.83;;
2173;SDS011;1093;51.424;11.764;2023-07-08T01:00:59;6.57;;;4.63;;
2173;SDS011;1093;51.424;11.764;2023-07-08T01:03:27;8.73;;;4.97;;
2173;SDS011;1093;51.424;11.764;2023-07-08T01:05:56;8.87;;;5.60;;
2173;SDS011;1093;51.424;11.764;2023-07-08T01:08:27;8.37;;;4.73;;
2173;SDS011;1093;51.424;11.764;2023-07-08T01:10:57;6.73;;;4.80;;
2173;SDS011;1093;51.424;11.764;2023-07-08T01:13:27;10.10;;;5.13;;
2173;SDS011;1093;51.424;11.764;2023-07-08T01:15:58;13.30;;;5.27;;
2173;SDS011;1093;51.424;11.764;2023-07-08T01:18:25;9.70;;;5.70;;
2173;SDS011;1093;51.424;11.764;2023-07-08T01:20:52;9.47;;;6.00;;
2173;SDS011;1093;51.424;11.764;2023-07-08T01:23:21;8.27;;;5.90;;
2173;SDS011;1093;51.424;11.764;2023-07-08T01:25:48;8.00;;;5.90;;
2173;SDS011;1093;51.424;11.764;2023-07-08T01:28:15;8.20;;;6.03;;
2173;SDS011;1093;51.424;11.764;2023-07-08T01:30:43;8.00;;;4.90;;
2173;SDS011;1093;51.424;11.764;2023-07-08T01:33:15;9.23;;;5.47;;
2173;SDS011;1093;51.424;11.764;2023-07-08T01:35:44;6.20;;;5.00;;
2173;SDS011;1093;51.424;11.764;2023-07-08T01:38:13;8.60;;;5.50;;
2173;SDS011;1093;51.424;11.764;2023-07-08T01:40:53;7.83;;;5.43;;
2173;SDS011;1093;51.424;11.764;2023-07-08T01:43:22;5.70;;;4.70;;
2173;SDS011;1093;51.424;11.764;2023-07-08T01:45:49;6.97;;;4.97;;
2173;SDS011;1093;51.424;11.764;2023-07-08T01:48:18;5.97;;;4.43;;
2173;SDS011;1093;51.424;11.764;2023-07-08T01:50:49;12.20;;;5.60;;
2173;SDS011;1093;51.424;11.764;2023-07-08T01:53:21;8.20;;;4.90;;
2173;SDS011;1093;51.424;11.764;2023-07-08T01:55:54;5.20;;;4.70;;
2173;SDS011;1093;51.424;11.764;2023-07-08T01:58:21;6.80;;;5.63;;
2173;SDS011;1093;51.424;11.764;2023-07-08T02:00:48;8.40;;;6.03;;
2173;SDS011;1093;51.424;11.764;2023-07-08T02:03:14;45.87;;;6.80;;
2173;SDS011;1093;51.424;11.764;2023-07-08T02:05:41;10.37;;;5.40;;
2173;SDS011;1093;51.424;11.764;2023-07-08T02:08:08;5.87;;;4.57;;
2173;SDS011;1093;51.424;11.764;2023-07-08T02:10:36;8.90;;;5.70;;
2173;SDS011;1093;51.424;11.764;2023-07-08T02:13:05;6.63;;;5.60;;
2173;SDS011;1093;51.424;11.764;2023-07-08T02:15:32;6.33;;;5.10;;
2173;SDS011;1093;51.424;11.764;2023-07-08T02:17:59;14.40;;;5.57;;
2173;SDS011;1093;51.424;11.764;2023-07-08T02:20:25;7.50;;;5.40;;
2173;SDS011;1093;51.424;11.764;2023-07-08T02:22:52;6.60;;;5.00;;
2173;SDS011;1093;51.424;11.764;2023-07-08T02:25:19;6.00;;;5.30;;
2173;SDS011;1093;51.424;11.764;2023-07-08T02:27:45;5.77;;;4.80;;
2173;SDS011;1093;51.424;11.764;2023-07-08T02:30:13;51.00;;;9.00;;
2173;SDS011;1093;51.424;11.764;2023-07-08T02:32:40;9.63;;;5.57;;
2173;SDS011;1093;51.424;11.764;2023-07-08T02:35:22;7.13;;;5.93;;
2173;SDS011;1093;51.424;11.764;2023-07-08T02:37:50;8.17;;;6.60;;
2173;SDS011;1093;51.424;11.764;2023-07-08T02:40:17;7.50;;;5.57;;
2173;SDS011;1093;51.424;11.764;2023-07-08T02:42:44;7.90;;;5.47;;
2173;SDS011;1093;51.424;11.764;2023-07-08T02:45:10;9.80;;;6.27;;
2173;SDS011;1093;51.424;11.764;2023-07-08T02:47:41;8.57;;;5.97;;
2173;SDS011;1093;51.424;11.764;2023-07-08T02:50:08;10.40;;;5.30;;
2173;SDS011;1093;51.424;11.764;2023-07-08T02:52:36;6.90;;;5.37;;
2173;SDS011;1093;51.424;11.764;2023-07-08T02:55:03;11.10;;;6.10;;
2173;SDS011;1093;51.424;11.764;2023-07-08T02:57:30;8.07;;;6.43;;
2173;SDS011;1093;51.424;11.764;2023-07-08T02:59:58;10.00;;;5.60;;
2173;SDS011;1093;51.424;11.764;2023-07-08T03:02:25;6.60;;;5.80;;
2173;SDS011;1093;51.424;11.764;2023-07-08T03:04:54;10.70;;;6.63;;
2173;SDS011;1093;51.424;11.764;2023-07-08T03:07:24;6.97;;;6.00;;
2173;SDS011;1093;51.424;11.764;2023-07-08T03:09:50;6.00;;;5.20;;
2173;SDS011;1093;51.424;11.764;2023-07-08T03:12:17;7.20;;;5.60;;
2173;SDS011;1093;51.424;11.764;2023-07-08T03:14:43;5.73;;;5.13;;
2173;SDS011;1093;51.424;11.764;2023-07-08T03:17:10;8.37;;;5.83;;
2173;SDS011;1093;51.424;11.764;2023-07-08T03:19:37;7.67;;;6.10;;
2173;SDS011;1093;51.424;11.764;2023-07-08T03:22:05;7.77;;;5.60;;
2173;SDS011;1093;51.424;11.764;2023-07-08T03:24:32;6.67;;;5.40;;
2173;SDS011;1093;51.424;11.764;2023-07-08T03:26:59;9.17;;;5.60;;
2173;SDS011;1093;51.424;11.764;2023-07-08T03:29:30;5.80;;;5.20;;
2173;SDS011;1093;51.424;11.764;2023-07-08T03:31:57;6.10;;;4.97;;
2173;SDS011;1093;51.424;11.764;2023-07-08T03:34:23;11.87;;;5.83;;
2173;SDS011;1093;51.424;11.764;2023-07-08T03:36:50;7.73;;;6.47;;
2173;SDS011;1093;51.424;11.764;2023-07-08T03:39:20;8.23;;;5.97;;
2173;SDS011;1093;51.424;11.764;2023-07-08T03:41:48;7.33;;;5.17;;
2173;SDS011;1093;51.424;11.764;2023-07-08T03:44:16;7.00;;;5.20;;
2173;SDS011;1093;51.424;11.764;2023-07-08T03:46:43;6.63;;;5.63;;
2173;SDS011;1093;51.424;11.764;2023-07-08T03:49:10;5.80;;;5.20;;
2173;SDS011;1093;51.424;11.764;2023-07-08T03:51:38;6.30;;;5.60;;
2173;SDS011;1093;51.424;11.764;2023-07-08T03:54:06;10.73;;;6.87;;
2173;SDS011;1093;51.424;11.764;2023-07-08T03:56:39;11.13;;;6.60;;
2173;SDS011;1093;51.424;11.764;2023-07-08T03:59:05;12.30;;;6.90;;
2173;SDS011;1093;51.424;11.764;2023-07-08T04:01:32;7.33;;;6.20;;
2173;SDS011;1093;51.424;11.764;2023-07-08T04:03:59;6.90;;;5.70;;
2173;SDS011;1093;51.424;11.764;2023-07-08T04:06:26;10.53;;;7.00;;
2173;SDS011;1093;51.424;11.764;2023-07-08T04:08:53;7.13;;;6.43;;
2173;SDS011;1093;51.424;11.764;2023-07-08T04:11:21;6.17;;;5.57;;
2173;SDS011;1093;51.424;11.764;2023-07-08T04:13:50;9.23;;;6.30;;
2173;SDS011;1093;51.424;11.764;2023-07-08T04:16:18;8.43;;;6.67;;
2173;SDS011;1093;51.424;11.764;2023-07-08T04:18:46;11.87;;;6.30;;
2173;SDS011;1093;51.424;11.764;2023-07-08T04:21:15;10.77;;;6.93;;
2173;SDS011;1093;51.424;11.764;2023-07-08T04:23:42;8.13;;;6.80;;
2173;SDS011;1093;51.424;11.764;2023-07-08T04:26:09;12.00;;;7.80;;
2173;SDS011;1093;51.424;11.764;2023-07-08T04:28:36;11.67;;;7.93;;
2173;SDS011;1093;51.424;11.764;2023-07-08T04:31:04;10.07;;;7.67;;
2173;SDS011;1093;51.424;11.764;2023-07-08T04:33:31;13.47;;;8.87;;
2173;SDS011;1093;51.424;11.764;2023-07-08T04:35:57;15.90;;;8.33;;
2173;SDS011;1093;51.424;11.764;2023-07-08T04:38:25;11.60;;;8.17;;
2173;SDS011;1093;51.424;11.764;2023-07-08T04:40:53;12.03;;;8.33;;
2173;SDS011;1093;51.424;11.764;2023-07-08T04:43:22;11.17;;;8.30;;
2173;SDS011;1093;51.424;11.764;2023-07-08T04:45:54;6.97;;;6.13;;
2173;SDS011;1093;51.424;11.764;2023-07-08T04:48:23;8.53;;;7.27;;
2173;SDS011;1093;51.424;11.764;2023-07-08T04:50:51;11.13;;;7.70;;
2173;SDS011;1093;51.424;11.764;2023-07-08T04:53:18;8.00;;;6.40;;
2173;SDS011;1093;51.424;11.764;2023-07-08T04:55:46;11.53;;;7.40;;
2173;SDS011;1093;51.424;11.764;2023-07-08T04:58:17;10.30;;;8.40;;
2173;SDS011;1093;51.424;11.764;2023-07-08T05:00:43;12.70;;;7.93;;
2173;SDS011;1093;51.424;11.764;2023-07-08T05:03:10;8.33;;;7.10;;
2173;SDS011;1093;51.424;11.764;2023-07-08T05:05:38;12.00;;;7.47;;
2173;SDS011;1093;51.424;11.764;2023-07-08T05:08:05;10.07;;;7.70;;
2173;SDS011;1093;51.424;11.764;2023-07-08T05:10:33;9.43;;;6.93;;
2173;SDS011;1093;51.424;11.764;2023-07-08T05:12:59;9.67;;;7.07;;
2173;SDS011;1093;51.424;11.764;2023-07-08T05:15:26;8.20;;;6.97;;
2173;SDS011;1093;51.424;11.764;2023-07-08T05:17:53;8.53;;;6.30;;
2173;SDS011;1093;51.424;11.764;2023-07-08T05:20:20;7.80;;;6.40;;
2173;SDS011;1093;51.424;11.764;2023-07-08T05:22:49;9.70;;;6.87;;
2173;SDS011;1093;51.424;11.764;2023-07-08T05:25:17;11.60;;;7.27;;
2173;SDS011;1093;51.424;11.764;2023-07-08T05:27:45;8.27;;;7.23;;
2173;SDS011;1093;51.424;11.764;2023-07-08T05:30:13;11.17;;;7.93;;
2173;SDS011;1093;51.424;11.764;2023-07-08T05:32:40;10.00;;;7.10;;
2173;SDS011;1093;51.424;11.764;2023-07-08T05:35:07;10.97;;;7.50;;
2173;SDS011;1093;51.424;11.764;2023-07-08T05:37:34;10.30;;;7.30;;
2173;SDS011;1093;51.424;11.764;2023-07-08T05:40:03;9.47;;;7.13;;
2173;SDS011;1093;51.424;11.764;2023-07-08T05:42:31;10.00;;;6.73;;
2173;SDS011;1093;51.424;11.764;2023-07-08T05:44:58;6.60;;;6.00;;
2173;SDS011;1093;51.424;11.764;2023-07-08T05:47:26;14.90;;;8.43;;
2173;SDS011;1093;51.424;11.764;2023-07-08T05:49:52;8.37;;;6.40;;
2173;SDS011;1093;51.424;11.764;2023-07-08T05:52:19;8.33;;;6.03;;
2173;SDS011;1093;51.424;11.764;2023-07-08T05:54:46;8.93;;;6.63;;
2173;SDS011;1093;51.424;11.764;2023-07-08T05:57:14;9.50;;;6.97;;
2173;SDS011;1093;51.424;11.764;2023-07-08T05:59:40;7.50;;;6.50;;
2173;SDS011;1093;51.424;11.764;2023-07-08T06:02:08;8.87;;;6.47;;
2173;SDS011;1093;51.424;11.764;2023-07-08T06:04:38;11.20;;;7.00;;
2173;SDS011;1093;51.424;11.764;2023-07-08T06:07:05;8.53;;;6.10;;
2173;SDS011;1093;51.424;11.764;2023-07-08T06:09:33;8.07;;;6.80;;
2173;SDS011;1093;51.424;11.764;2023-07-08T06:12:00;8.83;;;7.30;;
2173;SDS011;1093;51.424;11.764;2023-07-08T06:14:28;9.67;;;6.60;;
2173;SDS011;1093;51.424;11.764;2023-07-08T06:16:54;8.77;;;7.73;;
2173;SDS011;1093;51.424;11.764;2023-07-08T06:19:21;7.93;;;6.57;;
2173;SDS011;1093;51.424;11.764;2023-07-08T06:21:48;9.87;;;6.40;;
2173;SDS011;1093;51.424;11.764;2023-07-08T06:24:15;11.13;;;7.17;;
2173;SDS011;1093;51.424;11.764;2023-07-08T06:26:45;9.60;;;6.93;;
2173;SDS011;1093;51.424;11.764;2023-07-08T06:29:13;10.83;;;6.87;;
2173;SDS011;1093;51.424;11.764;2023-07-08T06:31:46;11.90;;;6.10;;
2173;SDS011;1093;51.424;11.764;2023-07-08T06:34:13;9.70;;;6.40;;
2173;SDS011;1093;51.424;11.764;2023-07-08T06:36:42;11.70;;;6.03;;
2173;SDS011;1093;51.424;11.764;2023-07-08T06:39:12;8.53;;;6.30;;
2173;SDS011;1093;51.424;11.764;2023-07-08T06:41:39;9.60;;;6.93;;
2173;SDS011;1093;51.424;11.764;2023-07-08T06:44:09;7.10;;;6.37;;
2173;SDS011;1093;51.424;11.764;2023-07-08T06:46:37;9.90;;;6.27;;
2173;SDS011;1093;51.424;11.764;2023-07-08T06:49:11;9.70;;;6.30;;
2173;SDS011;1093;51.424;11.764;2023-07-08T06:51:42;6.60;;;5.97;;
2173;SDS011;1093;51.424;11.764;2023-07-08T06:54:10;8.20;;;6.90;;
2173;SDS011;1093;51.424;11.764;2023-07-08T06:56:43;8.40;;;6.60;;
2173;SDS011;1093;51.424;11.764;2023-07-08T06:59:11;8.33;;;6.07;;
2173;SDS011;1093;51.424;11.764;2023-07-08T07:01:43;10.13;;;6.53;;
2173;SDS011;1093;51.424;11.764;2023-07-08T07:04:14;7.07;;;6.40;;
2173;SDS011;1093;51.424;11.764;2023-07-08T07:06:41;8.13;;;6.70;;
2173;SDS011;1093;51.424;11.764;2023-07-08T07:09:09;8.57;;;5.90;;
2173;SDS011;1093;51.424;11.764;2023-07-08T07:11:44;8.80;;;5.50;;
2173;SDS011;1093;51.424;11.764;2023-07-08T07:14:10;9.63;;;5.60;;
2173;SDS011;1093;51.424;11.764;2023-07-08T07:16:38;7.83;;;6.70;;
2173;SDS011;1093;51.424;11.764;2023-07-08T07:19:07;6.83;;;5.57;;
2173;SDS011;1093;51.424;11.764;2023-07-08T07:21:36;6.40;;;5.40;;
2173;SDS011;1093;51.424;11.764;2023-07-08T07:24:03;9.70;;;6.23;;
2173;SDS011;1093;51.424;11.764;2023-07-08T07:26:33;7.57;;;6.00;;
2173;SDS011;1093;51.424;11.764;2023-07-08T07:29:02;9.17;;;6.43;;
2173;SDS011;1093;51.424;11.764;2023-07-08T07:31:29;10.90;;;5.33;;
2173;SDS011;1093;51.424;11.764;2023-07-08T07:33:57;8.83;;;5.53;;
2173;SDS011;1093;51.424;11.764;2023-07-08T07:36:25;8.73;;;5.97;;
2173;SDS011;1093;51.424;11.764;2023-07-08T07:38:56;9.10;;;5.73;;
2173;SDS011;1093;51.424;11.764;2023-07-08T07:41:23;8.73;;;5.40;;
2173;SDS011;1093;51.424;11.764;2023-07-08T07:43:52;7.83;;;6.27;;
2173;SDS011;1093;51.424;11.764;2023-07-08T07:46:21;8.80;;;5.60;;
2173;SDS011;1093;51.424;11.764;2023-07-08T07:48:48;7.87;;;6.50;;
2173;SDS011;1093;51.424;11.764;2023-07-08T07:51:17;12.53;;;6.10;;
2173;SDS011;1093;51.424;11.764;2023-07-08T07:53:46;15.43;;;6.80;;
2173;SDS011;1093;51.424;11.764;2023-07-08T07:56:15;7.27;;;5.80;;
2173;SDS011;1093;51.424;11.764;2023-07-08T07:58:42;6.87;;;5.90;;
2173;SDS011;1093;51.424;11.764;2023-07-08T08:01:09;6.60;;;5.67;;
2173;SDS011;1093;51.424;11.764;2023-07-08T08:03:38;7.57;;;5.90;;
2173;SDS011;1093;51.424;11.764;2023-07-08T08:06:06;6.30;;;5.70;;
2173;SDS011;1093;51.424;11.764;2023-07-08T08:08:37;8.87;;;5.70;;
2173;SDS011;1093;51.424;11.764;2023-07-08T08:11:07;8.60;;;6.70;;
2173;SDS011;1093;51.424;11.764;2023-07-08T08:13:36;7.40;;;6.10;;
2173;SDS011;1093;51.424;11.764;2023-07-08T08:16:07;7.83;;;5.80;;
2173;SDS011;1093;51.424;11.764;2023-07-08T08:18:34;7.43;;;5.47;;
2173;SDS011;1093;51.424;11.764;2023-07-08T08:21:01;9.30;;;5.20;;
2173;SDS011;1093;51.424;11.764;2023-07-08T08:23:29;6.90;;;5.37;;
2173;SDS011;1093;51.424;11.764;2023-07-08T08:25:57;6.63;;;5.57;;
2173;SDS011;1093;51.424;11.764;2023-07-08T08:28:26;10.67;;;6.20;;
2173;SDS011;1093;51.424;11.764;2023-07-08T08:30:55;7.33;;;4.93;;
2173;SDS011;1093;51.424;11.764;2023-07-08T08:33:22;9.37;;;6.13;;
2173;SDS011;1093;51.424;11.764;2023-07-08T08:35:49;10.43;;;5.90;;
2173;SDS011;1093;51.424;11.764;2023-07-08T08:38:16;5.50;;;5.00;;
2173;SDS011;1093;51.424;11.764;2023-07-08T08:40:43;6.97;;;5.70;;
2173;SDS011;1093;51.424;11.764;2023-07-08T08:43:16;5.67;;;5.17;;
2173;SDS011;1093;51.424;11.764;2023-07-08T08:45:50;12.60;;;5.40;;
2173;SDS011;1093;51.424;11.764;2023-07-08T08:48:23;9.40;;;6.47;;
2173;SDS011;1093;51.424;11.764;2023-07-08T08:50:56;6.40;;;5.30;;
2173;SDS011;1093;51.424;11.764;2023-07-08T08:53:30;6.90;;;6.20;;
2173;SDS011;1093;51.424;11.764;2023-07-08T08:55:59;6.80;;;5.50;;
2173;SDS011;1093;51.424;11.764;2023-07-08T08:58:39;7.83;;;6.87;;
2173;SDS011;1093;51.424;11.764;2023-07-08T09:01:15;8.30;;;5.10;;
2173;SDS011;1093;51.424;11.764;2023-07-08T09:03:45;15.03;;;5.73;;
2173;SDS011;1093;51.424;11.764;2023-07-08T09:06:19;6.83;;;5.30;;
2173;SDS011;1093;51.424;11.764;2023-07-08T09:08:49;8.50;;;6.80;;
2173;SDS011;1093;51.424;11.764;2023-07-08T09:11:38;7.80;;;5.60;;
2173;SDS011;1093;51.424;11.764;2023-07-08T09:14:13;6.53;;;5.93;;
2173;SDS011;1093;51.424;11.764;2023-07-08T09:16:47;11.87;;;5.60;;
2173;SDS011;1093;51.424;11.764;2023-07-08T09:19:23;8.03;;;6.00;;
2173;SDS011;1093;51.424;11.764;2023-07-08T09:21:56;8.30;;;6.13;;
2173;SDS011;1093;51.424;11.764;2023-07-08T09:24:30;11.53;;;6.10;;
2173;SDS011;1093;51.424;11.764;2023-07-08T09:27:05;11.47;;;6.03;;
2173;SDS011;1093;51.424;11.764;2023-07-08T09:29:34;9.60;;;7.30;;
2173;SDS011;1093;51.424;11.764;2023-07-08T09:32:11;8.10;;;6.57;;
2173;SDS011;1093;51.424;11.764;2023-07-08T09:34:43;7.80;;;5.90;;
2173;SDS011;1093;51.424;11.764;2023-07-08T09:37:22;11.20;;;6.37;;
2173;SDS011;1093;51.424;11.764;2023-07-08T09:39:53;9.53;;;6.03;;
2173;SDS011;1093;51.424;11.764;2023-07-08T09:42:24;11.27;;;7.17;;
2173;SDS011;1093;51.424;11.764;2023-07-08T09:44:55;7.83;;;6.50;;
2173;SDS011;1093;51.424;11.764;2023-07-08T09:47:28;13.33;;;6.43;;
2173;SDS011;1093;51.424;11.764;2023-07-08T09:50:00;6.33;;;5.47;;
2173;SDS011;1093;51.424;11.764;2023-07-08T09:52:30;6.93;;;5.60;;
2173;SDS011;1093;51.424;11.764;2023-07-08T09:55:02;6.93;;;6.23;;
2173;SDS011;1093;51.424;11.764;2023-07-08T09:57:32;5.67;;;5.07;;
2173;SDS011;1093;51.424;11.764;2023-07-08T10:00:07;6.63;;;5.57;;
2173;SDS011;1093;51.424;11.764;2023-07-08T10:02:40;6.87;;;6.10;;
2173;SDS011;1093;51.424;11.764;2023-07-08T10:05:12;9.60;;;6.53;;
2173;SDS011;1093;51.424;11.764;2023-07-08T10:07:45;12.23;;;5.87;;
2173;SDS011;1093;51.424;11.764;2023-07-08T10:10:14;5.67;;;5.07;;
2173;SDS011;1093;51.424;11.764;2023-07-08T10:12:46;9.80;;;6.33;;
2173;SDS011;1093;51.424;11.764;2023-07-08T10:15:22;10.20;;;6.30;;
2173;SDS011;1093;51.424;11.764;2023-07-08T10:17:59;8.47;;;5.93;;
2173;SDS011;1093;51.424;11.764;2023-07-08T10:20:29;7.03;;;5.83;;
2173;SDS011;1093;51.424;11.764;2023-07-08T10:23:08;9.70;;;5.93;;
2173;SDS011;1093;51.424;11.764;2023-07-08T10:25:52;6.57;;;5.77;;
2173;SDS011;1093;51.424;11.764;2023-07-08T10:28:29;8.80;;;6.23;;
2173;SDS011;1093;51.424;11.764;2023-07-08T10:31:09;6.43;;;5.63;;
2173;SDS011;1093;51.424;11.764;2023-07-08T10:33:57;11.50;;;6.50;;
2173;SDS011;1093;51.424;11.764;2023-07-08T10:39:38;12.60;;;5.20;;
2173;SDS011;1093;51.424;11.764;2023-07-08T10:45:21;12.43;;;5.50;;
2173;SDS011;1093;51.424;11.764;2023-07-08T10:48:01;8.70;;;5.53;;
2173;SDS011;1093;51.424;11.764;2023-07-08T10:50:46;8.10;;;5.27;;
2173;SDS011;1093;51.424;11.764;2023-07-08T10:53:35;5.40;;;4.83;;
2173;SDS011;1093;51.424;11.764;2023-07-08T10:56:13;7.00;;;5.77;;
2173;SDS011;1093;51.424;11.764;2023-07-08T10:58:52;6.53;;;5.37;;
2173;SDS011;1093;51.424;11.764;2023-07-08T11:01:40;7.20;;;5.03;;
2173;SDS011;1093;51.424;11.764;2023-07-08T11:04:24;6.60;;;5.07;;
2173;SDS011;1093;51.424;11.764;2023-07-08T11:07:25;5.93;;;4.63;;
2173;SDS011;1093;51.424;11.764;2023-07-08T11:10:00;6.20;;;5.53;;
2173;SDS011;1093;51.424;11.764;2023-07-08T11:12:33;11.27;;;5.87;;
2173;SDS011;1093;51.424;11.764;2023-07-08T11:15:07;6.60;;;5.23;;
2173;SDS011;1093;51.424;11.764;2023-07-08T11:17:45;7.37;;;5.60;;
2173;SDS011;1093;51.424;11.764;2023-07-08T11:20:18;6.60;;;5.20;;
2173;SDS011;1093;51.424;11.764;2023-07-08T11:22:57;5.70;;;5.10;;
2173;SDS011;1093;51.424;11.764;2023-07-08T11:25:34;5.70;;;5.20;;
2173;SDS011;1093;51.424;11.764;2023-07-08T11:28:04;7.27;;;5.60;;
2173;SDS011;1093;51.424;11.764;2023-07-08T11:30:41;7.77;;;5.27;;
2173;SDS011;1093;51.424;11.764;2023-07-08T11:33:11;5.77;;;4.27;;
2173;SDS011;1093;51.424;11.764;2023-07-08T11:35:41;5.30;;;4.57;;
2173;SDS011;1093;51.424;11.764;2023-07-08T11:38:15;7.37;;;4.57;;
2173;SDS011;1093;51.424;11.764;2023-07-08T11:40:50;6.40;;;5.00;;
2173;SDS011;1093;51.424;11.764;2023-07-08T11:43:20;5.30;;;4.57;;
2173;SDS011;1093;51.424;11.764;2023-07-08T11:45:54;6.10;;;4.67;;
2173;SDS011;1093;51.424;11.764;2023-07-08T11:48:24;6.87;;;4.80;;
2173;SDS011;1093;51.424;11.764;2023-07-08T11:50:55;6.07;;;5.50;;
2173;SDS011;1093;51.424;11.764;2023-07-08T11:53:46;10.30;;;4.97;;
2173;SDS011;1093;51.424;11.764;2023-07-08T11:56:19;7.40;;;5.30;;
2173;SDS011;1093;51.424;11.764;2023-07-08T11:58:58;5.80;;;4.47;;
2173;SDS011;1093;51.424;11.764;2023-07-08T12:01:39;5.23;;;4.50;;
2173;SDS011;1093;51.424;11.764;2023-07-08T12:04:21;5.93;;;5.00;;
2173;SDS011;1093;51.424;11.764;2023-07-08T12:07:06;5.90;;;5.03;;
2173;SDS011;1093;51.424;11.764;2023-07-08T12:09:39;7.00;;;5.23;;
2173;SDS011;1093;51.424;11.764;2023-07-08T12:12:17;6.17;;;4.43;;
2173;SDS011;1093;51.424;11.764;2023-07-08T12:14:50;5.33;;;4.70;;
2173;SDS011;1093;51.424;11.764;2023-07-08T12:17:23;7.63;;;4.80;;
2173;SDS011;1093;51.424;11.764;2023-07-08T12:19:52;6.00;;;4.60;;
2173;SDS011;1093;51.424;11.764;2023-07-08T12:22:24;6.57;;;5.07;;
2173;SDS011;1093;51.424;11.764;2023-07-08T12:24:52;5.20;;;4.30;;
2173;SDS011;1093;51.424;11.764;2023-07-08T12:27:23;6.73;;;5.30;;
2173;SDS011;1093;51.424;11.764;2023-07-08T12:29:50;6.77;;;5.50;;
2173;SDS011;1093;51.424;11.764;2023-07-08T12:32:19;6.47;;;5.87;;
2173;SDS011;1093;51.424;11.764;2023-07-08T12:34:51;6.53;;;4.47;;
2173;SDS011;1093;51.424;11.764;2023-07-08T12:37:19;5.30;;;4.70;;
2173;SDS011;1093;51.424;11.764;2023-07-08T12:39:55;6.27;;;4.53;;
2173;SDS011;1093;51.424;11.764;2023-07-08T12:42:25;12.47;;;5.23;;
2173;SDS011;1093;51.424;11.764;2023-07-08T12:44:55;7.13;;;4.53;;
2173;SDS011;1093;51.424;11.764;2023-07-08T12:47:24;10.10;;;5.67;;
2173;SDS011;1093;51.424;11.764;2023-07-08T12:49:52;6.60;;;4.93;;
2173;SDS011;1093;51.424;11.764;2023-07-08T12:52:22;5.63;;;4.63;;
2173;SDS011;1093;51.424;11.764;2023-07-08T12:54:56;8.43;;;5.03;;
2173;SDS011;1093;51.424;11.764;2023-07-08T12:57:25;5.10;;;4.60;;
2173;SDS011;1093;51.424;11.764;2023-07-08T12:59:55;5.63;;;5.03;;
2173;SDS011;1093;51.424;11.764;2023-07-08T13:02:24;8.80;;;6.10;;
2173;SDS011;1093;51.424;11.764;2023-07-08T13:04:56;6.53;;;5.17;;
2173;SDS011;1093;51.424;11.764;2023-07-08T13:07:30;6.37;;;5.57;;
2173;SDS011;1093;51.424;11.764;2023-07-08T13:10:08;6.07;;;4.87;;
2173;SDS011;1093;51.424;11.764;2023-07-08T13:12:45;9.43;;;5.13;;
2173;SDS011;1093;51.424;11.764;2023-07-08T13:15:17;5.27;;;4.77;;
2173;SDS011;1093;51.424;11.764;2023-07-08T13:17:52;7.13;;;5.30;;
2173;SDS011;1093;51.424;11.764;2023-07-08T13:20:21;5.20;;;4.57;;
2173;SDS011;1093;51.424;11.764;2023-07-08T13:22:52;6.17;;;5.40;;
2173;SDS011;1093;51.424;11.764;2023-07-08T13:25:28;7.50;;;4.80;;
2173;SDS011;1093;51.424;11.764;2023-07-08T13:27:58;5.27;;;4.87;;
2173;SDS011;1093;51.424;11.764;2023-07-08T13:30:48;7.90;;;4.83;;
2173;SDS011;1093;51.424;11.764;2023-07-08T13:33:17;6.00;;;4.97;;
2173;SDS011;1093;51.424;11.764;2023-07-08T13:35:48;6.03;;;5.03;;
2173;SDS011;1093;51.424;11.764;2023-07-08T13:38:19;7.30;;;5.17;;
2173;SDS011;1093;51.424;11.764;2023-07-08T13:40:54;6.80;;;5.70;;
2173;SDS011;1093;51.424;11.764;2023-07-08T13:43:24;8.97;;;5.03;;
2173;SDS011;1093;51.424;11.764;2023-07-08T13:45:57;5.80;;;5.30;;
2173;SDS011;1093;51.424;11.764;2023-07-08T13:48:26;6.33;;;5.07;;
2173;SDS011;1093;51.424;11.764;2023-07-08T13:51:01;6.03;;;4.90;;
2173;SDS011;1093;51.424;11.764;2023-07-08T13:53:42;5.40;;;4.87;;
2173;SDS011;1093;51.424;11.764;2023-07-08T13:56:15;5.03;;;4.57;;
2173;SDS011;1093;51.424;11.764;2023-07-08T13:58:46;5.87;;;5.00;;
2173;SDS011;1093;51.424;11.764;2023-07-08T14:01:17;7.77;;;4.90;;
2173;SDS011;1093;51.424;11.764;2023-07-08T14:03:48;7.37;;;5.67;;
2173;SDS011;1093;51.424;11.764;2023-07-08T14:06:20;5.40;;;4.33;;
2173;SDS011;1093;51.424;11.764;2023-07-08T14:08:54;9.60;;;5.40;;
2173;SDS011;1093;51.424;11.764;2023-07-08T14:11:23;8.33;;;5.27;;
2173;SDS011;1093;51.424;11.764;2023-07-08T14:13:53;7.73;;;5.40;;
2173;SDS011;1093;51.424;11.764;2023-07-08T14:16:23;5.93;;;5.33;;
2173;SDS011;1093;51.424;11.764;2023-07-08T14:18:56;8.23;;;5.10;;
2173;SDS011;1093;51.424;11.764;2023-07-08T14:21:25;6.23;;;5.17;;
2173;SDS011;1093;51.424;11.764;2023-07-08T14:23:52;9.33;;;6.10;;
2173;SDS011;1093;51.424;11.764;2023-07-08T14:26:21;7.37;;;5.23;;
2173;SDS011;1093;51.424;11.764;2023-07-08T14:28:59;7.43;;;5.73;;
2173;SDS011;1093;51.424;11.764;2023-07-08T14:31:26;7.47;;;5.17;;
2173;SDS011;1093;51.424;11.764;2023-07-08T14:33:54;7.10;;;5.40;;
2173;SDS011;1093;51.424;11.764;2023-07-08T14:36:26;5.77;;;5.27;;
2173;SDS011;1093;51.424;11.764;2023-07-08T14:38:55;5.90;;;5.30;;
2173;SDS011;1093;51.424;11.764;2023-07-08T14:41:27;8.03;;;5.20;;
2173;SDS011;1093;51.424;11.764;2023-07-08T14:43:56;7.53;;;5.63;;
2173;SDS011;1093;51.424;11.764;2023-07-08T14:46:23;6.93;;;5.27;;
2173;SDS011;1093;51.424;11.764;2023-07-08T14:48:50;5.93;;;4.67;;
2173;SDS011;1093;51.424;11.764;2023-07-08T14:51:16;8.90;;;6.63;;
2173;SDS011;1093;51.424;11.764;2023-07-08T14:53:45;6.90;;;6.20;;
2173;SDS011;1093;51.424;11.764;2023-07-08T14:56:15;6.47;;;5.40;;
2173;SDS011;1093;51.424;11.764;2023-07-08T14:58:45;5.40;;;4.87;;
2173;SDS011;1093;51.424;11.764;2023-07-08T15:01:14;6.30;;;5.20;;
2173;SDS011;1093;51.424;11.764;2023-07-08T15:03:46;7.03;;;5.30;;
2173;SDS011;1093;51.424;11.764;2023-07-08T15:06:15;6.67;;;5.03;;
2173;SDS011;1093;51.424;11.764;2023-07-08T15:08:44;6.83;;;4.90;;
2173;SDS011;1093;51.424;11.764;2023-07-08T15:11:15;6.83;;;5.57;;
2173;SDS011;1093;51.424;11.764;2023-07-08T15:13:51;5.97;;;4.90;;
2173;SDS011;1093;51.424;11.764;2023-07-08T15:16:18;5.20;;;4.53;;
2173;SDS011;1093;51.424;11.764;2023-07-08T15:18:48;7.17;;;5.47;;
2173;SDS011;1093;51.424;11.764;2023-07-08T15:21:16;7.30;;;5.63;;
2173;SDS011;1093;51.424;11.764;2023-07-08T15:23:44;5.27;;;4.60;;